Time;durP1;ratioP1;P1;durP2;ratioP2;P2;SDS_P1;SDS_P2;PMS_P1;PMS_P2;Temp;Humidity;BMP_temperature;BMP_pressure;BME280_temperature;BME280_humidity;BME280_pressure;Samples;Min_cycle;Max_cycle;Signal;HPM_P1;HPM_P2
2023/09/21 00:01:39;;;;;;;;;;;19.10;91.20;;;;;;5084358;28;19916;-71
2023/09/21 00:04:05;;;;;;;;;;;19.20;91.20;;;;;;5091742;28;20089;-71
2023/09/21 00:06:31;;;;;;;;;;;19.20;91.20;;;;;;5091046;28;20520;-71
2023/09/21 00:08:56;;;;;;;;;;;19.20;91.20;;;;;;5083287;28;19912;-71
2023/09/21 00:11:22;;;;;;;;;;;19.20;91.10;;;;;;5082838;28;20479;-71
2023/09/21 00:13:48;;;;;;;;;;;19.10;91.20;;;;;;5085516;28;19920;-71
2023/09/21 00:16:18;;;;;;;;;;;19.10;91.20;;;;;;5103825;28;19915;-71
2023/09/21 00:18:44;;;;;;;;;;;19.10;91.20;;;;;;5082959;28;19908;-71
2023/09/21 00:21:12;;;;;;;;;;;19.10;91.20;;;;;;5091035;28;20006;-71
2023/09/21 00:23:38;;;;;;;;;;;19.10;91.20;;;;;;5091091;28;20647;-71
2023/09/21 00:26:04;;;;;;;;;;;19.10;91.20;;;;;;5082796;28;19945;-71
2023/09/21 00:28:30;;;;;;;;;;;19.10;91.20;;;;;;5082212;28;19912;-71
2023/09/21 00:30:59;;;;;;;;;;;19.10;91.30;;;;;;5091008;28;19927;-71
2023/09/21 00:33:25;;;;;;;;;;;19.10;91.20;;;;;;5080796;28;20538;-71
2023/09/21 00:35:51;;;;;;;;;;;19.10;91.20;;;;;;5090842;28;19995;-71
2023/09/21 00:38:18;;;;;;;;;;;19.00;91.20;;;;;;5089175;28;20384;-71
2023/09/21 00:40:43;;;;;;;;;;;19.00;91.20;;;;;;5090998;28;20428;-71
2023/09/21 00:43:10;;;;;;;;;;;19.10;91.20;;;;;;5073860;28;19913;-71
2023/09/21 00:45:36;;;;;;;;;;;19.00;91.20;;;;;;5102862;28;19912;-71
2023/09/21 00:48:03;;;;;;;;;;;19.00;91.20;;;;;;5094277;28;19912;-71
2023/09/21 00:50:30;;;;;;;;;;;19.00;91.20;;;;;;5098589;28;19924;-71
2023/09/21 00:52:56;;;;;;;;;;;19.00;91.30;;;;;;5086607;28;19916;-71
2023/09/21 00:55:24;;;;;;;;;;;19.00;91.30;;;;;;5089949;28;19916;-71
2023/09/21 00:57:50;;;;;;;;;;;19.00;91.40;;;;;;5090557;28;19916;-71
2023/09/21 01:00:18;;;;;;;;;;;19.00;91.40;;;;;;5090332;28;19911;-71
2023/09/21 01:02:46;;;;;;;;;;;19.00;91.20;;;;;;5090597;28;19943;-71
2023/09/21 01:05:13;;;;;;;;;;;19.00;91.30;;;;;;5073124;28;19916;-71
2023/09/21 01:07:40;;;;;;;;;;;19.00;91.30;;;;;;5094734;28;20036;-71
2023/09/21 01:10:07;;;;;;;;;;;18.90;91.30;;;;;;5094167;28;19952;-71
2023/09/21 01:12:36;;;;;;;;;;;18.90;91.30;;;;;;5103212;28;20528;-70
2023/09/21 01:15:04;;;;;;;;;;;19.00;91.30;;;;;;5088325;28;19927;-70
2023/09/21 01:17:30;;;;;;;;;;;19.00;91.40;;;;;;5089419;28;19916;-70
2023/09/21 01:19:56;;;;;;;;;;;18.90;91.40;;;;;;5098383;28;19919;-70
2023/09/21 01:22:23;;;;;;;;;;;18.90;91.40;;;;;;5099822;28;20617;-70
2023/09/21 01:24:49;;;;;;;;;;;18.90;91.40;;;;;;5098695;28;19912;-70
2023/09/21 01:27:14;;;;;;;;;;;18.90;91.50;;;;;;5088590;28;19988;-70
2023/09/21 01:29:41;;;;;;;;;;;18.90;91.40;;;;;;5069776;28;19919;-70
2023/09/21 01:32:06;;;;;;;;;;;18.90;91.40;;;;;;5090588;28;20003;-70
2023/09/21 01:34:33;;;;;;;;;;;18.80;91.40;;;;;;5105182;28;20598;-70
2023/09/21 01:36:58;;;;;;;;;;;18.90;91.40;;;;;;5080709;28;19912;-70
2023/09/21 01:39:24;;;;;;;;;;;18.80;91.30;;;;;;5087535;28;19909;-70
2023/09/21 01:41:53;;;;;;;;;;;18.90;91.40;;;;;;5116294;27;19919;-70
2023/09/21 01:44:21;;;;;;;;;;;18.80;91.40;;;;;;5102674;28;20300;-70
2023/09/21 01:46:47;;;;;;;;;;;18.80;91.40;;;;;;5096639;28;19999;-70
2023/09/21 01:49:14;;;;;;;;;;;18.80;91.50;;;;;;5081577;28;19927;-70
2023/09/21 01:51:40;;;;;;;;;;;18.80;91.50;;;;;;5072343;28;19970;-70
2023/09/21 01:54:07;;;;;;;;;;;18.80;91.50;;;;;;5074755;28;19920;-70
2023/09/21 01:56:33;;;;;;;;;;;18.80;91.60;;;;;;5085637;28;20007;-70
2023/09/21 01:59:00;;;;;;;;;;;18.70;91.40;;;;;;5083256;28;19912;-70
2023/09/21 02:01:26;;;;;;;;;;;18.70;91.40;;;;;;5082842;28;19924;-70
2023/09/21 02:03:52;;;;;;;;;;;18.80;91.50;;;;;;5094900;28;19912;-70
2023/09/21 02:06:17;;;;;;;;;;;18.70;91.50;;;;;;5082173;28;19920;-70
2023/09/21 02:08:43;;;;;;;;;;;18.70;91.60;;;;;;5105147;28;19912;-70
2023/09/21 02:11:08;;;;;;;;;;;18.70;91.60;;;;;;5089250;28;19912;-70
2023/09/21 02:13:34;;;;;;;;;;;18.70;91.60;;;;;;5100336;28;19953;-70
2023/09/21 02:16:00;;;;;;;;;;;18.70;91.60;;;;;;5099328;28;19922;-70
2023/09/21 02:18:25;;;;;;;;;;;18.70;91.70;;;;;;5097101;28;20299;-70
2023/09/21 02:20:51;;;;;;;;;;;18.70;91.60;;;;;;5083383;28;19961;-70
2023/09/21 02:23:17;;;;;;;;;;;18.70;91.70;;;;;;5086452;28;19908;-70
2023/09/21 02:25:43;;;;;;;;;;;18.70;91.70;;;;;;5096124;28;19944;-70
2023/09/21 02:28:12;;;;;;;;;;;18.70;91.70;;;;;;5096040;28;19915;-70
2023/09/21 02:30:39;;;;;;;;;;;18.70;91.60;;;;;;5109248;28;20003;-70
2023/09/21 02:33:05;;;;;;;;;;;18.60;91.60;;;;;;5101206;28;20409;-70
2023/09/21 02:35:33;;;;;;;;;;;18.60;91.70;;;;;;5080014;28;19920;-70
2023/09/21 02:37:59;;;;;;;;;;;18.60;91.70;;;;;;5079935;28;19946;-70
2023/09/21 02:40:24;;;;;;;;;;;18.60;91.80;;;;;;5096607;28;19923;-70
2023/09/21 02:42:51;;;;;;;;;;;18.60;91.70;;;;;;5088345;28;19908;-70
2023/09/21 02:45:21;;;;;;;;;;;18.60;91.70;;;;;;5087563;28;19909;-70
2023/09/21 02:47:47;;;;;;;;;;;18.60;91.70;;;;;;5094099;28;19908;-70
2023/09/21 02:50:21;;;;;;;;;;;18.60;91.80;;;;;;5088714;28;20003;-70
2023/09/21 02:52:57;;;;;;;;;;;18.60;91.70;;;;;;5095474;28;20238;-70
2023/09/21 02:55:23;;;;;;;;;;;18.60;91.70;;;;;;5079596;28;20330;-70
2023/09/21 02:57:59;;;;;;;;;;;18.60;91.70;;;;;;5082797;28;19912;-70
2023/09/21 03:00:34;;;;;;;;;;;18.60;91.80;;;;;;5084072;28;19950;-70
2023/09/21 03:03:00;;;;;;;;;;;18.50;91.70;;;;;;5074701;28;20430;-70
2023/09/21 03:05:27;;;;;;;;;;;18.50;91.70;;;;;;5094128;28;20417;-70
2023/09/21 03:07:54;;;;;;;;;;;18.60;91.80;;;;;;5075096;28;20356;-70
2023/09/21 03:10:20;;;;;;;;;;;18.50;91.70;;;;;;5078419;28;20015;-70
2023/09/21 03:12:48;;;;;;;;;;;18.50;91.80;;;;;;5093348;28;19951;-70
2023/09/21 03:15:14;;;;;;;;;;;18.50;91.80;;;;;;5090170;28;19916;-71
2023/09/21 03:17:43;;;;;;;;;;;18.50;91.90;;;;;;5082843;28;20384;-71
2023/09/21 03:20:11;;;;;;;;;;;18.50;91.90;;;;;;5076379;28;19978;-71
2023/09/21 03:22:37;;;;;;;;;;;18.40;91.80;;;;;;5071854;28;20065;-70
2023/09/21 03:25:03;;;;;;;;;;;18.40;91.80;;;;;;5095120;28;19912;-70
2023/09/21 03:27:29;;;;;;;;;;;18.40;91.80;;;;;;5097499;28;19943;-70
2023/09/21 03:29:54;;;;;;;;;;;18.40;91.90;;;;;;5087857;28;19912;-70
2023/09/21 03:32:20;;;;;;;;;;;18.40;91.80;;;;;;5111557;27;19913;-70
2023/09/21 03:34:46;;;;;;;;;;;18.40;91.90;;;;;;5087601;28;19919;-70
2023/09/21 03:37:13;;;;;;;;;;;18.40;91.90;;;;;;5096076;28;20360;-70
2023/09/21 03:39:39;;;;;;;;;;;18.40;92.20;;;;;;5092483;28;20426;-70
2023/09/21 03:42:05;;;;;;;;;;;18.40;92.00;;;;;;5091496;28;19911;-70
2023/09/21 03:44:30;;;;;;;;;;;18.40;92.00;;;;;;5079574;28;19912;-70
2023/09/21 03:46:56;;;;;;;;;;;18.40;91.90;;;;;;5095184;28;19909;-70
2023/09/21 03:49:21;;;;;;;;;;;18.30;91.90;;;;;;5095384;28;19915;-70
2023/09/21 03:51:47;;;;;;;;;;;18.30;91.90;;;;;;5076739;28;19989;-70
2023/09/21 03:54:15;;;;;;;;;;;18.30;91.90;;;;;;5091078;28;19916;-70
2023/09/21 03:56:41;;;;;;;;;;;18.30;91.90;;;;;;5104075;28;19908;-70
2023/09/21 03:59:07;;;;;;;;;;;18.30;92.00;;;;;;5071466;28;19913;-70
2023/09/21 04:01:36;;;;;;;;;;;18.30;92.00;;;;;;5090958;28;20315;-70
2023/09/21 04:04:07;;;;;;;;;;;18.30;92.00;;;;;;5083328;28;19912;-70
2023/09/21 04:06:33;;;;;;;;;;;18.30;92.00;;;;;;5091421;28;19971;-70
2023/09/21 04:08:59;;;;;;;;;;;18.30;92.00;;;;;;5076662;28;19924;-70
2023/09/21 04:11:28;;;;;;;;;;;18.30;91.90;;;;;;5079814;28;19919;-70
2023/09/21 04:13:53;;;;;;;;;;;18.20;91.90;;;;;;5071052;28;19920;-70
2023/09/21 04:16:19;;;;;;;;;;;18.20;91.90;;;;;;5087838;28;19916;-70
2023/09/21 04:18:44;;;;;;;;;;;18.20;91.90;;;;;;5084234;28;19916;-70
2023/09/21 04:21:10;;;;;;;;;;;18.20;92.00;;;;;;5093971;28;20303;-70
2023/09/21 04:23:35;;;;;;;;;;;18.20;92.00;;;;;;5087679;28;19919;-70
2023/09/21 04:26:01;;;;;;;;;;;18.20;91.90;;;;;;5087793;28;19963;-70
2023/09/21 04:28:26;;;;;;;;;;;18.20;91.90;;;;;;5097480;28;19959;-70
2023/09/21 04:30:52;;;;;;;;;;;18.20;91.90;;;;;;5085627;28;20372;-70
2023/09/21 04:33:17;;;;;;;;;;;18.20;91.90;;;;;;5103876;28;19919;-70
2023/09/21 04:35:43;;;;;;;;;;;18.20;91.90;;;;;;5087055;28;19916;-70
2023/09/21 04:38:09;;;;;;;;;;;18.20;91.90;;;;;;5078887;28;19948;-70
2023/09/21 04:40:34;;;;;;;;;;;18.20;92.00;;;;;;5091078;28;19911;-70
2023/09/21 04:43:00;;;;;;;;;;;18.10;91.90;;;;;;5102569;28;19959;-70
2023/09/21 04:45:28;;;;;;;;;;;18.20;92.00;;;;;;5098936;28;19909;-70
2023/09/21 04:48:00;;;;;;;;;;;18.10;92.00;;;;;;5095118;28;20402;-70
2023/09/21 04:50:26;;;;;;;;;;;18.20;91.90;;;;;;5110635;28;19954;-70
2023/09/21 04:52:51;;;;;;;;;;;18.10;91.90;;;;;;5097307;28;19912;-70
2023/09/21 04:55:17;;;;;;;;;;;18.10;92.00;;;;;;5098734;28;19916;-70
2023/09/21 04:57:43;;;;;;;;;;;18.10;92.00;;;;;;5095292;28;19939;-70
2023/09/21 05:00:13;;;;;;;;;;;18.10;91.90;;;;;;5079011;28;20369;-70
2023/09/21 05:02:39;;;;;;;;;;;18.10;92.00;;;;;;5126198;27;19912;-70
2023/09/21 05:05:05;;;;;;;;;;;18.10;92.00;;;;;;5094641;28;19917;-70
2023/09/21 05:07:30;;;;;;;;;;;18.10;92.00;;;;;;5114218;27;19908;-70
2023/09/21 05:09:56;;;;;;;;;;;18.10;91.90;;;;;;5090691;28;19934;-70
2023/09/21 05:12:21;;;;;;;;;;;18.10;92.00;;;;;;5081910;28;19915;-70
2023/09/21 05:14:47;;;;;;;;;;;18.10;92.10;;;;;;5086636;28;20434;-70
2023/09/21 05:17:13;;;;;;;;;;;18.10;91.90;;;;;;5085258;28;19919;-70
2023/09/21 05:19:39;;;;;;;;;;;18.10;91.90;;;;;;5081982;28;19908;-70
2023/09/21 05:22:05;;;;;;;;;;;18.10;91.80;;;;;;5094477;28;19911;-70
2023/09/21 05:24:32;;;;;;;;;;;18.10;91.80;;;;;;5099251;27;19908;-71
2023/09/21 05:26:58;;;;;;;;;;;18.10;91.70;;;;;;5090404;28;20277;-71
2023/09/21 05:29:23;;;;;;;;;;;18.10;91.80;;;;;;5098582;28;19908;-71
2023/09/21 05:31:49;;;;;;;;;;;18.10;91.80;;;;;;5109678;27;19921;-71
2023/09/21 05:34:16;;;;;;;;;;;18.10;91.80;;;;;;5095029;28;19962;-71
2023/09/21 05:36:44;;;;;;;;;;;18.10;91.70;;;;;;5094057;28;20488;-71
2023/09/21 05:39:10;;;;;;;;;;;18.10;91.70;;;;;;5094479;27;20376;-71
2023/09/21 05:41:36;;;;;;;;;;;18.10;91.70;;;;;;5089802;28;19919;-71
2023/09/21 05:44:02;;;;;;;;;;;18.10;91.80;;;;;;5098097;28;19915;-71
2023/09/21 05:46:27;;;;;;;;;;;18.10;91.70;;;;;;5092905;28;19912;-71
2023/09/21 05:48:53;;;;;;;;;;;18.10;91.70;;;;;;5101923;28;19912;-71
2023/09/21 05:51:19;;;;;;;;;;;18.10;91.70;;;;;;5083673;28;19908;-71
2023/09/21 05:53:45;;;;;;;;;;;18.10;91.70;;;;;;5088077;28;19912;-71
2023/09/21 05:56:11;;;;;;;;;;;18.10;91.70;;;;;;5106051;28;20267;-71
2023/09/21 05:58:37;;;;;;;;;;;18.10;91.60;;;;;;5089591;28;19939;-71
2023/09/21 06:01:03;;;;;;;;;;;18.10;91.60;;;;;;5089214;28;19912;-71
2023/09/21 06:03:28;;;;;;;;;;;18.10;91.60;;;;;;5099353;28;19908;-71
2023/09/21 06:05:54;;;;;;;;;;;18.10;91.60;;;;;;5095307;28;19908;-71
2023/09/21 06:08:20;;;;;;;;;;;18.10;91.90;;;;;;5088888;28;19912;-71
2023/09/21 06:10:46;;;;;;;;;;;18.20;91.60;;;;;;5084904;28;19908;-71
2023/09/21 06:13:12;;;;;;;;;;;18.20;91.60;;;;;;5109188;27;19990;-70
2023/09/21 06:15:45;;;;;;;;;;;18.10;91.50;;;;;;5088776;28;20019;-70
2023/09/21 06:18:10;;;;;;;;;;;18.20;91.60;;;;;;5097165;28;19911;-70
2023/09/21 06:20:36;;;;;;;;;;;18.20;91.60;;;;;;5094413;28;19957;-70
2023/09/21 06:23:02;;;;;;;;;;;18.20;91.50;;;;;;5072024;28;19965;-70
2023/09/21 06:25:27;;;;;;;;;;;18.20;91.60;;;;;;5072421;28;20383;-70
2023/09/21 06:27:53;;;;;;;;;;;18.20;91.60;;;;;;5080086;28;19998;-71
2023/09/21 06:30:20;;;;;;;;;;;18.20;91.60;;;;;;5084059;28;20003;-71
2023/09/21 06:32:47;;;;;;;;;;;18.20;91.50;;;;;;5109462;28;19920;-71
2023/09/21 06:35:13;;;;;;;;;;;18.20;91.60;;;;;;5092548;28;20353;-71
2023/09/21 06:37:39;;;;;;;;;;;18.20;91.50;;;;;;5093050;28;19912;-71
2023/09/21 06:40:06;;;;;;;;;;;18.20;91.50;;;;;;5092302;28;20046;-71
2023/09/21 06:42:32;;;;;;;;;;;18.20;91.50;;;;;;5097666;28;19922;-71
2023/09/21 06:44:57;;;;;;;;;;;18.30;91.50;;;;;;5089002;28;19916;-71
2023/09/21 06:47:23;;;;;;;;;;;18.30;91.50;;;;;;5090667;28;20311;-71
2023/09/21 06:49:50;;;;;;;;;;;18.30;91.50;;;;;;5080591;28;19932;-71
2023/09/21 06:52:17;;;;;;;;;;;18.30;91.50;;;;;;5097244;28;19915;-70
2023/09/21 06:54:44;;;;;;;;;;;18.40;91.50;;;;;;5083103;28;20402;-70
2023/09/21 06:57:10;;;;;;;;;;;18.40;91.50;;;;;;5085462;28;19987;-70
2023/09/21 06:59:36;;;;;;;;;;;18.40;91.40;;;;;;5077041;28;20358;-70
2023/09/21 07:02:03;;;;;;;;;;;18.40;91.40;;;;;;5119663;28;19940;-70
2023/09/21 07:04:33;;;;;;;;;;;18.40;91.40;;;;;;5079800;28;20140;-70
2023/09/21 07:07:02;;;;;;;;;;;18.40;91.40;;;;;;5075628;28;19909;-70
2023/09/21 07:09:28;;;;;;;;;;;18.50;91.40;;;;;;5085014;28;19912;-70
2023/09/21 07:11:53;;;;;;;;;;;18.50;91.40;;;;;;5090757;28;19908;-70
2023/09/21 07:14:19;;;;;;;;;;;18.50;91.40;;;;;;5095850;28;19958;-71
2023/09/21 07:16:44;;;;;;;;;;;18.50;91.40;;;;;;5074281;28;20408;-71
2023/09/21 07:19:11;;;;;;;;;;;18.50;91.40;;;;;;5096742;28;19975;-70
2023/09/21 07:21:37;;;;;;;;;;;18.50;91.40;;;;;;5096160;28;19944;-70
2023/09/21 07:24:05;;;;;;;;;;;18.60;91.40;;;;;;5091410;28;19951;-70
2023/09/21 07:26:31;;;;;;;;;;;18.60;91.40;;;;;;5093458;28;19916;-70
2023/09/21 07:28:57;;;;;;;;;;;18.60;91.40;;;;;;5098217;28;20433;-70
2023/09/21 07:31:22;;;;;;;;;;;18.60;91.50;;;;;;5108828;28;20581;-70
2023/09/21 07:33:48;;;;;;;;;;;18.60;91.30;;;;;;5111688;28;20006;-70
2023/09/21 07:36:14;;;;;;;;;;;18.60;91.30;;;;;;5103295;28;20748;-70
2023/09/21 07:38:40;;;;;;;;;;;18.60;91.30;;;;;;5098276;28;19916;-70
2023/09/21 07:41:06;;;;;;;;;;;18.70;91.40;;;;;;5098746;28;20011;-70
2023/09/21 07:43:33;;;;;;;;;;;18.70;91.30;;;;;;5098852;28;20317;-70
2023/09/21 07:45:59;;;;;;;;;;;18.70;91.30;;;;;;5091458;28;19912;-70
2023/09/21 07:48:26;;;;;;;;;;;18.70;91.30;;;;;;5100705;28;19951;-70
2023/09/21 07:50:54;;;;;;;;;;;18.70;91.30;;;;;;5097708;27;19934;-70
2023/09/21 07:53:19;;;;;;;;;;;18.80;91.30;;;;;;5089935;28;19908;-70
2023/09/21 07:55:45;;;;;;;;;;;18.80;91.30;;;;;;5103239;28;19980;-70
2023/09/21 07:58:10;;;;;;;;;;;18.80;91.30;;;;;;5103348;28;19912;-70
2023/09/21 08:00:36;;;;;;;;;;;18.90;91.30;;;;;;5080407;28;20595;-70
2023/09/21 08:03:02;;;;;;;;;;;18.90;91.30;;;;;;5082801;28;19953;-70
2023/09/21 08:05:30;;;;;;;;;;;18.90;91.30;;;;;;5089941;28;20323;-70
2023/09/21 08:07:56;;;;;;;;;;;18.90;91.40;;;;;;5090372;28;19987;-70
2023/09/21 08:10:21;;;;;;;;;;;19.00;91.30;;;;;;5089244;28;19995;-70
2023/09/21 08:12:47;;;;;;;;;;;19.00;91.20;;;;;;5117219;27;19920;-70
2023/09/21 08:15:13;;;;;;;;;;;19.00;91.10;;;;;;5085379;28;19923;-70
2023/09/21 08:17:39;;;;;;;;;;;19.10;91.20;;;;;;5090834;28;19915;-70
2023/09/21 08:20:09;;;;;;;;;;;19.20;91.10;;;;;;5093757;28;20318;-70
2023/09/21 08:22:34;;;;;;;;;;;19.20;91.10;;;;;;5091054;27;20503;-70
2023/09/21 08:25:00;;;;;;;;;;;19.20;91.10;;;;;;5104523;28;19912;-70
2023/09/21 08:27:28;;;;;;;;;;;19.30;91.20;;;;;;5085506;28;19920;-70
2023/09/21 08:29:55;;;;;;;;;;;19.30;91.10;;;;;;5100370;28;19915;-70
2023/09/21 08:32:21;;;;;;;;;;;19.40;91.10;;;;;;5093269;28;19913;-70
2023/09/21 08:34:48;;;;;;;;;;;19.40;91.10;;;;;;5095802;28;19916;-70
2023/09/21 08:37:13;;;;;;;;;;;19.50;91.00;;;;;;5080984;28;19970;-70
2023/09/21 08:39:39;;;;;;;;;;;19.50;91.00;;;;;;5079562;28;20276;-70
2023/09/21 08:42:04;;;;;;;;;;;19.60;91.10;;;;;;5081608;28;20198;-70
2023/09/21 08:44:30;;;;;;;;;;;19.70;91.10;;;;;;5080609;28;19912;-70
2023/09/21 08:46:55;;;;;;;;;;;19.70;91.20;;;;;;5083364;28;19908;-70
2023/09/21 08:49:22;;;;;;;;;;;19.80;90.80;;;;;;5097934;28;19943;-70
2023/09/21 08:51:47;;;;;;;;;;;19.80;90.80;;;;;;5103008;28;19919;-70
2023/09/21 08:54:14;;;;;;;;;;;19.80;90.70;;;;;;5091733;28;19912;-71
2023/09/21 08:56:42;;;;;;;;;;;19.90;90.90;;;;;;5100190;28;19916;-71
2023/09/21 08:59:08;;;;;;;;;;;20.00;90.80;;;;;;5091237;28;19947;-71
2023/09/21 09:01:34;;;;;;;;;;;20.00;90.80;;;;;;5098847;28;19912;-71
2023/09/21 09:04:00;;;;;;;;;;;20.00;90.80;;;;;;5094236;28;19931;-71
2023/09/21 09:06:29;;;;;;;;;;;20.00;91.10;;;;;;5089957;28;20479;-71
2023/09/21 09:08:54;;;;;;;;;;;20.00;90.90;;;;;;5089215;28;20002;-70
2023/09/21 09:11:34;;;;;;;;;;;20.10;90.80;;;;;;5090436;28;20041;-71
2023/09/21 09:14:01;;;;;;;;;;;20.10;90.80;;;;;;5095739;28;19919;-71
2023/09/21 09:16:30;;;;;;;;;;;20.10;90.80;;;;;;5088446;27;19916;-71
2023/09/21 09:18:57;;;;;;;;;;;20.20;90.80;;;;;;5097153;28;19960;-70
2023/09/21 09:21:25;;;;;;;;;;;20.20;90.80;;;;;;5083529;27;19951;-70
2023/09/21 09:23:50;;;;;;;;;;;20.20;90.70;;;;;;5081638;28;20014;-70
2023/09/21 09:26:17;;;;;;;;;;;20.20;90.70;;;;;;5089321;28;20002;-70
2023/09/21 09:28:42;;;;;;;;;;;20.20;90.70;;;;;;5086015;28;19919;-70
2023/09/21 09:31:11;;;;;;;;;;;20.30;90.80;;;;;;5074958;28;19912;-70
2023/09/21 09:33:40;;;;;;;;;;;20.30;90.80;;;;;;5094675;28;19919;-70
2023/09/21 09:36:06;;;;;;;;;;;20.40;90.70;;;;;;5075931;28;19934;-70
2023/09/21 09:38:35;;;;;;;;;;;20.40;90.70;;;;;;5087294;28;20294;-70
2023/09/21 09:41:06;;;;;;;;;;;20.50;90.70;;;;;;5082997;28;20444;-70
2023/09/21 09:43:37;;;;;;;;;;;20.50;90.60;;;;;;5078553;28;20250;-70
2023/09/21 09:46:04;;;;;;;;;;;20.50;90.60;;;;;;5087527;28;19912;-70
2023/09/21 09:48:30;;;;;;;;;;;20.60;90.60;;;;;;5082585;28;19923;-71
2023/09/21 09:50:57;;;;;;;;;;;20.60;90.60;;;;;;5104289;28;19987;-71
2023/09/21 09:53:24;;;;;;;;;;;20.70;90.70;;;;;;5088970;28;19939;-71
2023/09/21 09:55:53;;;;;;;;;;;20.70;90.50;;;;;;5089153;28;19920;-71
2023/09/21 09:58:19;;;;;;;;;;;20.80;90.50;;;;;;5088924;28;19916;-71
2023/09/21 10:00:45;;;;;;;;;;;20.80;90.40;;;;;;5088834;28;19947;-70
2023/09/21 10:03:11;;;;;;;;;;;20.90;90.50;;;;;;5089471;28;19961;-72
2023/09/21 10:05:38;;;;;;;;;;;20.90;90.40;;;;;;5099562;28;19920;-70
2023/09/21 10:08:06;;;;;;;;;;;21.00;90.40;;;;;;5099370;28;20276;-70
2023/09/21 10:10:46;;;;;;;;;;;21.00;90.30;;;;;;5099366;28;19908;-70
2023/09/21 10:13:11;;;;;;;;;;;21.10;90.30;;;;;;5109356;28;19912;-70
2023/09/21 10:15:37;;;;;;;;;;;21.10;90.40;;;;;;5097885;28;19926;-70
2023/09/21 10:18:04;;;;;;;;;;;21.20;90.50;;;;;;5080573;28;20561;-70
2023/09/21 10:20:33;;;;;;;;;;;21.20;90.40;;;;;;5090117;28;19923;-70
2023/09/21 10:23:05;;;;;;;;;;;21.20;90.30;;;;;;5101988;28;20288;-70
2023/09/21 10:25:37;;;;;;;;;;;21.20;90.30;;;;;;5084533;28;19916;-71
2023/09/21 10:28:27;;;;;;;;;;;21.30;90.40;;;;;;5098419;28;19915;-71
2023/09/21 10:31:09;;;;;;;;;;;21.30;90.30;;;;;;5104733;28;19915;-70
2023/09/21 10:34:03;;;;;;;;;;;21.30;90.30;;;;;;5105701;28;19912;-70
2023/09/21 10:36:30;;;;;;;;;;;21.30;90.30;;;;;;5080583;28;19912;-70
2023/09/21 10:39:11;;;;;;;;;;;21.40;90.30;;;;;;5082760;28;19991;-70
2023/09/21 10:41:43;;;;;;;;;;;21.40;90.30;;;;;;5090712;28;19915;-70
2023/09/21 10:44:09;;;;;;;;;;;21.50;90.30;;;;;;5078510;28;20022;-70
2023/09/21 10:46:37;;;;;;;;;;;21.50;90.30;;;;;;5096153;28;20317;-71
2023/09/21 10:49:11;;;;;;;;;;;21.50;90.30;;;;;;5093322;28;19920;-70
2023/09/21 10:51:39;;;;;;;;;;;21.60;90.30;;;;;;5080681;28;19936;-70
2023/09/21 10:54:06;;;;;;;;;;;21.60;90.20;;;;;;5082635;28;19919;-70
2023/09/21 10:56:32;;;;;;;;;;;21.60;90.30;;;;;;5096673;28;20628;-70
2023/09/21 10:58:58;;;;;;;;;;;21.60;90.20;;;;;;5098037;28;19947;-70
2023/09/21 11:01:23;;;;;;;;;;;21.70;90.20;;;;;;5089750;28;19916;-70
2023/09/21 11:03:49;;;;;;;;;;;21.70;90.20;;;;;;5090253;28;19916;-70
2023/09/21 11:06:16;;;;;;;;;;;21.70;90.30;;;;;;5089545;28;20034;-71
2023/09/21 11:08:42;;;;;;;;;;;21.70;90.20;;;;;;5078838;28;19912;-71
2023/09/21 11:11:07;;;;;;;;;;;21.80;90.20;;;;;;5089336;28;19919;-70
2023/09/21 11:13:33;;;;;;;;;;;21.80;90.30;;;;;;5087821;28;19947;-71
2023/09/21 11:15:58;;;;;;;;;;;21.80;90.20;;;;;;5080981;28;19916;-70
2023/09/21 11:18:24;;;;;;;;;;;21.90;90.20;;;;;;5101247;28;19965;-70
2023/09/21 11:20:49;;;;;;;;;;;21.90;90.20;;;;;;5089424;28;19965;-70
2023/09/21 11:23:18;;;;;;;;;;;21.90;90.20;;;;;;5088706;28;19947;-70
2023/09/21 11:25:47;;;;;;;;;;;21.80;90.30;;;;;;5079404;28;19916;-70
2023/09/21 11:28:13;;;;;;;;;;;21.80;90.30;;;;;;5080889;28;19947;-70
2023/09/21 11:30:42;;;;;;;;;;;21.90;90.40;;;;;;5091476;28;19916;-70
2023/09/21 11:33:08;;;;;;;;;;;21.90;90.40;;;;;;5093731;28;19965;-70
2023/09/21 11:35:34;;;;;;;;;;;21.90;90.30;;;;;;5080089;28;19912;-70
2023/09/21 11:38:00;;;;;;;;;;;22.00;90.30;;;;;;5089787;28;19912;-70
2023/09/21 11:40:26;;;;;;;;;;;22.10;90.20;;;;;;5080279;28;19916;-70
2023/09/21 11:42:59;;;;;;;;;;;22.10;90.10;;;;;;5084105;28;19908;-70
2023/09/21 11:45:25;;;;;;;;;;;22.20;90.10;;;;;;5084073;28;19970;-70
2023/09/21 11:47:58;;;;;;;;;;;22.20;90.10;;;;;;5084866;28;20385;-70
2023/09/21 11:50:27;;;;;;;;;;;22.30;90.00;;;;;;5086026;28;20027;-70
2023/09/21 11:52:54;;;;;;;;;;;22.30;90.00;;;;;;5081469;28;19912;-70
2023/09/21 11:55:29;;;;;;;;;;;22.40;90.10;;;;;;5086521;28;19927;-70
2023/09/21 11:58:11;;;;;;;;;;;22.40;89.90;;;;;;5095163;28;19950;-70
2023/09/21 12:00:43;;;;;;;;;;;22.50;90.00;;;;;;5071236;28;19960;-70
2023/09/21 12:03:37;;;;;;;;;;;22.60;89.80;;;;;;5080264;28;19916;-70
2023/09/21 12:06:03;;;;;;;;;;;22.50;89.80;;;;;;5072630;28;19908;-70
2023/09/21 12:08:29;;;;;;;;;;;22.50;89.60;;;;;;5089325;28;19912;-70
2023/09/21 12:10:55;;;;;;;;;;;22.50;89.80;;;;;;5089844;28;19943;-70
2023/09/21 12:13:21;;;;;;;;;;;22.50;89.80;;;;;;5077836;28;20358;-70
2023/09/21 12:15:46;;;;;;;;;;;22.50;89.80;;;;;;5090417;28;19923;-70
2023/09/21 12:18:12;;;;;;;;;;;22.50;90.20;;;;;;5091678;28;19920;-70
2023/09/21 12:20:49;;;;;;;;;;;22.50;89.80;;;;;;5079323;28;19919;-71
2023/09/21 12:23:15;;;;;;;;;;;22.50;90.00;;;;;;5097335;28;19919;-70
2023/09/21 12:25:41;;;;;;;;;;;22.50;90.00;;;;;;5082724;28;19908;-70
2023/09/21 12:28:09;;;;;;;;;;;22.50;90.00;;;;;;5093744;28;19917;-70
2023/09/21 12:30:34;;;;;;;;;;;22.50;90.00;;;;;;5081332;28;19914;-70
2023/09/21 12:33:02;;;;;;;;;;;22.50;90.10;;;;;;5099634;28;19912;-70
2023/09/21 12:35:30;;;;;;;;;;;22.50;90.00;;;;;;5091194;28;19923;-70
2023/09/21 12:37:56;;;;;;;;;;;22.50;90.00;;;;;;5105201;28;19947;-70
2023/09/21 12:40:22;;;;;;;;;;;22.50;90.10;;;;;;5094516;28;20336;-70
2023/09/21 12:42:47;;;;;;;;;;;22.50;90.10;;;;;;5088899;28;19920;-70
2023/09/21 12:45:22;;;;;;;;;;;22.40;90.10;;;;;;5081974;28;19912;-70
2023/09/21 12:47:48;;;;;;;;;;;22.40;90.10;;;;;;5092617;28;19915;-70
2023/09/21 12:50:14;;;;;;;;;;;22.50;90.10;;;;;;5095381;28;19969;-70
2023/09/21 12:52:41;;;;;;;;;;;22.40;90.10;;;;;;5090825;28;20022;-70
2023/09/21 12:55:07;;;;;;;;;;;22.40;90.20;;;;;;5084439;28;20006;-70
2023/09/21 12:57:36;;;;;;;;;;;22.40;90.20;;;;;;5113456;27;20599;-70
2023/09/21 13:00:05;;;;;;;;;;;22.40;90.20;;;;;;5099239;28;20432;-70
2023/09/21 13:02:30;;;;;;;;;;;22.40;90.20;;;;;;5080788;28;20408;-70
2023/09/21 13:04:57;;;;;;;;;;;22.40;90.20;;;;;;5078715;28;19908;-70
2023/09/21 13:07:25;;;;;;;;;;;22.40;90.30;;;;;;5087468;28;19916;-70
2023/09/21 13:09:51;;;;;;;;;;;22.40;90.20;;;;;;5082995;28;19908;-70
2023/09/21 13:12:17;;;;;;;;;;;22.50;90.30;;;;;;5091137;28;20444;-70
2023/09/21 13:14:43;;;;;;;;;;;22.40;90.20;;;;;;5099042;28;19923;-70
2023/09/21 13:17:08;;;;;;;;;;;22.50;90.30;;;;;;5094517;28;20340;-70
2023/09/21 13:19:36;;;;;;;;;;;22.50;90.20;;;;;;5081776;28;20313;-70
2023/09/21 13:22:02;;;;;;;;;;;22.50;90.20;;;;;;5084021;28;19908;-70
2023/09/21 13:24:28;;;;;;;;;;;22.40;90.30;;;;;;5089217;28;19952;-70
2023/09/21 13:26:53;;;;;;;;;;;22.40;90.30;;;;;;5089986;28;20404;-70
2023/09/21 13:29:20;;;;;;;;;;;22.40;90.30;;;;;;5086144;28;19973;-70
2023/09/21 13:31:45;;;;;;;;;;;22.40;90.30;;;;;;5087423;28;20011;-70
2023/09/21 13:34:12;;;;;;;;;;;22.40;90.40;;;;;;5082129;28;20039;-70
2023/09/21 13:36:39;;;;;;;;;;;22.40;90.40;;;;;;5088197;28;21389;-70
2023/09/21 13:39:05;;;;;;;;;;;22.40;90.40;;;;;;5089403;28;19909;-70
2023/09/21 13:41:31;;;;;;;;;;;22.40;90.40;;;;;;5088283;28;19915;-70
2023/09/21 13:43:56;;;;;;;;;;;22.40;90.40;;;;;;5081362;28;19915;-70
2023/09/21 13:46:22;;;;;;;;;;;22.40;90.40;;;;;;5092430;28;19919;-70
2023/09/21 13:48:47;;;;;;;;;;;22.40;90.30;;;;;;5097982;28;19912;-70
2023/09/21 13:51:13;;;;;;;;;;;22.40;90.30;;;;;;5089364;28;20031;-70
2023/09/21 13:53:38;;;;;;;;;;;22.40;90.40;;;;;;5097761;28;19912;-70
2023/09/21 13:56:04;;;;;;;;;;;22.40;90.40;;;;;;5092106;28;20031;-70
2023/09/21 13:58:29;;;;;;;;;;;22.30;90.40;;;;;;5087338;28;19919;-70
2023/09/21 14:00:55;;;;;;;;;;;22.30;90.50;;;;;;5090100;28;19919;-70
2023/09/21 14:03:20;;;;;;;;;;;22.30;90.50;;;;;;5097912;28;20372;-70
2023/09/21 14:05:46;;;;;;;;;;;22.30;90.60;;;;;;5094625;28;19945;-70
2023/09/21 14:08:13;;;;;;;;;;;22.30;90.60;;;;;;5089043;28;20004;-70
2023/09/21 14:10:39;;;;;;;;;;;22.30;90.60;;;;;;5088762;28;19923;-70
2023/09/21 14:13:05;;;;;;;;;;;22.30;90.60;;;;;;5087412;28;19916;-70
2023/09/21 14:15:31;;;;;;;;;;;22.30;90.60;;;;;;5088491;28;20261;-70